sensor_id;sensor_type;location;lat;lon;timestamp;P1;durP1;ratioP1;P2;durP2;ratioP2
22152;SDS011;11242;50.536;12.688;2022-11-21T00:00:14;3.42;;;2.95;;
22152;SDS011;11242;50.536;12.688;2022-11-21T00:02:40;3.40;;;2.67;;
22152;SDS011;11242;50.536;12.688;2022-11-21T00:05:06;3.33;;;2.45;;
22152;SDS011;11242;50.536;12.688;2022-11-21T00:07:32;3.78;;;2.60;;
22152;SDS011;11242;50.536;12.688;2022-11-21T00:09:58;2.38;;;2.17;;
22152;SDS011;11242;50.536;12.688;2022-11-21T00:12:23;2.78;;;2.22;;
22152;SDS011;11242;50.536;12.688;2022-11-21T00:14:49;2.10;;;1.90;;
22152;SDS011;11242;50.536;12.688;2022-11-21T00:17:15;2.05;;;1.85;;
22152;SDS011;11242;50.536;12.688;2022-11-21T00:19:40;1.90;;;1.80;;
22152;SDS011;11242;50.536;12.688;2022-11-21T00:22:06;2.08;;;1.88;;
22152;SDS011;11242;50.536;12.688;2022-11-21T00:24:31;1.83;;;1.70;;
22152;SDS011;11242;50.536;12.688;2022-11-21T00:26:57;2.55;;;2.13;;
22152;SDS011;11242;50.536;12.688;2022-11-21T00:29:23;2.17;;;1.98;;
22152;SDS011;11242;50.536;12.688;2022-11-21T00:31:49;2.30;;;2.10;;
22152;SDS011;11242;50.536;12.688;2022-11-21T00:34:15;3.40;;;2.00;;
22152;SDS011;11242;50.536;12.688;2022-11-21T00:36:40;2.33;;;2.00;;
22152;SDS011;11242;50.536;12.688;2022-11-21T00:39:07;2.20;;;2.00;;
22152;SDS011;11242;50.536;12.688;2022-11-21T00:41:32;2.33;;;2.08;;
22152;SDS011;11242;50.536;12.688;2022-11-21T00:43:58;2.33;;;2.13;;
22152;SDS011;11242;50.536;12.688;2022-11-21T00:46:24;2.20;;;2.00;;
22152;SDS011;11242;50.536;12.688;2022-11-21T00:48:49;2.10;;;1.90;;
22152;SDS011;11242;50.536;12.688;2022-11-21T00:51:15;1.80;;;1.70;;
22152;SDS011;11242;50.536;12.688;2022-11-21T00:53:41;1.80;;;1.70;;
22152;SDS011;11242;50.536;12.688;2022-11-21T00:56:06;1.45;;;1.35;;
22152;SDS011;11242;50.536;12.688;2022-11-21T00:58:32;1.65;;;1.55;;
22152;SDS011;11242;50.536;12.688;2022-11-21T01:01:05;1.55;;;1.20;;
22152;SDS011;11242;50.536;12.688;2022-11-21T01:03:33;1.30;;;1.20;;
22152;SDS011;11242;50.536;12.688;2022-11-21T01:06:03;1.05;;;1.00;;
22152;SDS011;11242;50.536;12.688;2022-11-21T01:08:30;0.90;;;0.90;;
22152;SDS011;11242;50.536;12.688;2022-11-21T01:10:56;0.90;;;0.90;;
22152;SDS011;11242;50.536;12.688;2022-11-21T01:13:25;1.08;;;1.00;;
22152;SDS011;11242;50.536;12.688;2022-11-21T01:15:51;1.65;;;0.77;;
22152;SDS011;11242;50.536;12.688;2022-11-21T01:18:16;0.85;;;0.85;;
22152;SDS011;11242;50.536;12.688;2022-11-21T01:20:42;0.80;;;0.80;;
22152;SDS011;11242;50.536;12.688;2022-11-21T01:23:08;0.70;;;0.70;;
22152;SDS011;11242;50.536;12.688;2022-11-21T01:25:34;0.70;;;0.70;;
22152;SDS011;11242;50.536;12.688;2022-11-21T01:28:00;0.70;;;0.70;;
22152;SDS011;11242;50.536;12.688;2022-11-21T01:30:26;0.70;;;0.70;;
22152;SDS011;11242;50.536;12.688;2022-11-21T01:32:51;1.65;;;0.80;;
22152;SDS011;11242;50.536;12.688;2022-11-21T01:35:17;0.90;;;0.70;;
22152;SDS011;11242;50.536;12.688;2022-11-21T01:37:46;0.80;;;0.80;;
22152;SDS011;11242;50.536;12.688;2022-11-21T01:40:13;0.85;;;0.85;;
22152;SDS011;11242;50.536;12.688;2022-11-21T01:42:51;0.85;;;0.85;;
22152;SDS011;11242;50.536;12.688;2022-11-21T01:48:21;1.10;;;1.00;;
22152;SDS011;11242;50.536;12.688;2022-11-21T01:54:02;1.17;;;1.08;;
22152;SDS011;11242;50.536;12.688;2022-11-21T01:59:39;1.33;;;1.23;;
22152;SDS011;11242;50.536;12.688;2022-11-21T02:02:16;1.23;;;1.23;;
22152;SDS011;11242;50.536;12.688;2022-11-21T02:04:44;1.60;;;1.50;;
22152;SDS011;11242;50.536;12.688;2022-11-21T02:07:11;2.13;;;1.70;;
22152;SDS011;11242;50.536;12.688;2022-11-21T02:09:39;2.20;;;2.00;;
22152;SDS011;11242;50.536;12.688;2022-11-21T02:12:13;6.47;;;1.85;;
22152;SDS011;11242;50.536;12.688;2022-11-21T02:14:42;2.20;;;2.00;;
22152;SDS011;11242;50.536;12.688;2022-11-21T02:17:09;3.42;;;1.75;;
22152;SDS011;11242;50.536;12.688;2022-11-21T02:19:39;2.30;;;2.03;;
22152;SDS011;11242;50.536;12.688;2022-11-21T02:22:18;2.88;;;2.45;;
22152;SDS011;11242;50.536;12.688;2022-11-21T02:27:35;2.47;;;2.28;;
22152;SDS011;11242;50.536;12.688;2022-11-21T02:30:02;2.60;;;2.40;;
22152;SDS011;11242;50.536;12.688;2022-11-21T02:32:34;3.47;;;2.20;;
22152;SDS011;11242;50.536;12.688;2022-11-21T02:35:11;4.05;;;2.50;;
22152;SDS011;11242;50.536;12.688;2022-11-21T02:37:37;3.30;;;2.30;;
22152;SDS011;11242;50.536;12.688;2022-11-21T02:40:11;3.15;;;2.28;;
22152;SDS011;11242;50.536;12.688;2022-11-21T02:45:40;4.30;;;2.80;;
22152;SDS011;11242;50.536;12.688;2022-11-21T02:48:07;2.30;;;2.10;;
22152;SDS011;11242;50.536;12.688;2022-11-21T02:50:34;2.67;;;1.98;;
22152;SDS011;11242;50.536;12.688;2022-11-21T02:53:02;2.60;;;2.10;;
22152;SDS011;11242;50.536;12.688;2022-11-21T02:55:29;2.28;;;1.88;;
22152;SDS011;11242;50.536;12.688;2022-11-21T02:57:55;1.90;;;1.67;;
22152;SDS011;11242;50.536;12.688;2022-11-21T03:00:20;2.22;;;1.60;;
22152;SDS011;11242;50.536;12.688;2022-11-21T03:02:47;1.80;;;1.70;;
22152;SDS011;11242;50.536;12.688;2022-11-21T03:05:13;2.58;;;1.70;;
22152;SDS011;11242;50.536;12.688;2022-11-21T03:07:41;1.75;;;1.65;;
22152;SDS011;11242;50.536;12.688;2022-11-21T03:10:06;2.10;;;1.63;;
22152;SDS011;11242;50.536;12.688;2022-11-21T03:12:40;3.35;;;1.70;;
22152;SDS011;11242;50.536;12.688;2022-11-21T03:15:07;2.13;;;1.58;;
22152;SDS011;11242;50.536;12.688;2022-11-21T03:17:34;3.40;;;1.80;;
22152;SDS011;11242;50.536;12.688;2022-11-21T03:20:00;2.13;;;1.83;;
22152;SDS011;11242;50.536;12.688;2022-11-21T03:22:26;1.98;;;1.67;;
22152;SDS011;11242;50.536;12.688;2022-11-21T03:24:52;1.80;;;1.50;;
22152;SDS011;11242;50.536;12.688;2022-11-21T03:27:18;1.77;;;1.40;;
22152;SDS011;11242;50.536;12.688;2022-11-21T03:29:43;1.40;;;1.30;;
22152;SDS011;11242;50.536;12.688;2022-11-21T03:32:09;1.48;;;1.30;;
22152;SDS011;11242;50.536;12.688;2022-11-21T03:34:35;2.88;;;2.20;;
22152;SDS011;11242;50.536;12.688;2022-11-21T03:37:00;2.10;;;1.90;;
22152;SDS011;11242;50.536;12.688;2022-11-21T03:39:26;1.92;;;1.58;;
22152;SDS011;11242;50.536;12.688;2022-11-21T03:41:53;1.55;;;1.30;;
22152;SDS011;11242;50.536;12.688;2022-11-21T03:44:19;2.70;;;1.20;;
22152;SDS011;11242;50.536;12.688;2022-11-21T03:46:45;1.20;;;1.10;;
22152;SDS011;11242;50.536;12.688;2022-11-21T03:49:11;1.85;;;1.38;;
22152;SDS011;11242;50.536;12.688;2022-11-21T03:51:38;1.33;;;1.20;;
22152;SDS011;11242;50.536;12.688;2022-11-21T03:54:04;1.58;;;1.27;;
22152;SDS011;11242;50.536;12.688;2022-11-21T03:56:30;6.90;;;2.35;;
22152;SDS011;11242;50.536;12.688;2022-11-21T03:58:56;4.28;;;2.78;;
22152;SDS011;11242;50.536;12.688;2022-11-21T04:01:23;50.28;;;26.85;;
22152;SDS011;11242;50.536;12.688;2022-11-21T04:03:49;8.30;;;5.32;;
22152;SDS011;11242;50.536;12.688;2022-11-21T04:06:16;1.63;;;1.52;;
22152;SDS011;11242;50.536;12.688;2022-11-21T04:08:43;1.80;;;1.38;;
22152;SDS011;11242;50.536;12.688;2022-11-21T04:11:09;1.40;;;1.30;;
22152;SDS011;11242;50.536;12.688;2022-11-21T04:13:35;1.38;;;1.25;;
22152;SDS011;11242;50.536;12.688;2022-11-21T04:16:01;1.55;;;1.30;;
22152;SDS011;11242;50.536;12.688;2022-11-21T04:18:27;2.28;;;1.30;;
22152;SDS011;11242;50.536;12.688;2022-11-21T04:20:59;0.90;;;0.90;;
22152;SDS011;11242;50.536;12.688;2022-11-21T04:23:26;1.35;;;1.25;;
22152;SDS011;11242;50.536;12.688;2022-11-21T04:25:52;1.45;;;1.10;;
22152;SDS011;11242;50.536;12.688;2022-11-21T04:28:18;2.38;;;1.35;;
22152;SDS011;11242;50.536;12.688;2022-11-21T04:30:44;1.73;;;1.52;;
22152;SDS011;11242;50.536;12.688;2022-11-21T04:33:10;2.50;;;1.40;;
22152;SDS011;11242;50.536;12.688;2022-11-21T04:35:37;1.67;;;1.38;;
22152;SDS011;11242;50.536;12.688;2022-11-21T04:38:02;1.83;;;1.20;;
22152;SDS011;11242;50.536;12.688;2022-11-21T04:40:28;2.15;;;1.30;;
22152;SDS011;11242;50.536;12.688;2022-11-21T04:42:54;1.35;;;1.25;;
22152;SDS011;11242;50.536;12.688;2022-11-21T04:45:19;1.23;;;1.00;;
22152;SDS011;11242;50.536;12.688;2022-11-21T04:47:45;1.48;;;1.10;;
22152;SDS011;11242;50.536;12.688;2022-11-21T04:50:13;2.10;;;1.30;;
22152;SDS011;11242;50.536;12.688;2022-11-21T04:52:40;1.42;;;1.17;;
22152;SDS011;11242;50.536;12.688;2022-11-21T04:55:06;1.30;;;1.20;;
22152;SDS011;11242;50.536;12.688;2022-11-21T04:57:32;1.48;;;1.20;;
22152;SDS011;11242;50.536;12.688;2022-11-21T04:59:58;1.60;;;1.23;;
22152;SDS011;11242;50.536;12.688;2022-11-21T05:02:23;1.75;;;1.10;;
22152;SDS011;11242;50.536;12.688;2022-11-21T05:04:49;1.33;;;1.20;;
22152;SDS011;11242;50.536;12.688;2022-11-21T05:07:15;1.67;;;1.33;;
22152;SDS011;11242;50.536;12.688;2022-11-21T05:09:41;1.23;;;1.13;;
22152;SDS011;11242;50.536;12.688;2022-11-21T05:12:10;1.23;;;1.13;;
22152;SDS011;11242;50.536;12.688;2022-11-21T05:14:54;1.00;;;1.00;;
22152;SDS011;11242;50.536;12.688;2022-11-21T05:17:21;1.00;;;1.00;;
22152;SDS011;11242;50.536;12.688;2022-11-21T05:19:47;1.30;;;1.10;;
22152;SDS011;11242;50.536;12.688;2022-11-21T05:22:12;0.93;;;0.93;;
22152;SDS011;11242;50.536;12.688;2022-11-21T05:24:38;0.90;;;0.90;;
22152;SDS011;11242;50.536;12.688;2022-11-21T05:27:04;2.85;;;1.15;;
22152;SDS011;11242;50.536;12.688;2022-11-21T05:29:30;1.10;;;0.90;;
22152;SDS011;11242;50.536;12.688;2022-11-21T05:31:55;2.50;;;1.05;;
22152;SDS011;11242;50.536;12.688;2022-11-21T05:34:21;1.20;;;1.10;;
22152;SDS011;11242;50.536;12.688;2022-11-21T05:36:47;1.23;;;1.08;;
22152;SDS011;11242;50.536;12.688;2022-11-21T05:39:12;4.30;;;3.03;;
22152;SDS011;11242;50.536;12.688;2022-11-21T05:41:39;2.10;;;1.33;;
22152;SDS011;11242;50.536;12.688;2022-11-21T05:44:05;11.73;;;7.50;;
22152;SDS011;11242;50.536;12.688;2022-11-21T05:46:31;10.52;;;6.25;;
22152;SDS011;11242;50.536;12.688;2022-11-21T05:48:57;32.13;;;20.02;;
22152;SDS011;11242;50.536;12.688;2022-11-21T05:51:22;2.85;;;2.13;;
22152;SDS011;11242;50.536;12.688;2022-11-21T05:53:48;1.95;;;1.60;;
22152;SDS011;11242;50.536;12.688;2022-11-21T05:56:15;6.15;;;4.90;;
22152;SDS011;11242;50.536;12.688;2022-11-21T05:58:42;1.75;;;1.65;;
22152;SDS011;11242;50.536;12.688;2022-11-21T06:01:09;1.80;;;1.70;;
22152;SDS011;11242;50.536;12.688;2022-11-21T06:03:37;1.30;;;1.23;;
22152;SDS011;11242;50.536;12.688;2022-11-21T06:06:04;2.33;;;1.10;;
22152;SDS011;11242;50.536;12.688;2022-11-21T06:08:31;1.80;;;1.63;;
22152;SDS011;11242;50.536;12.688;2022-11-21T06:11:00;1.50;;;1.40;;
22152;SDS011;11242;50.536;12.688;2022-11-21T06:13:26;1.80;;;1.70;;
22152;SDS011;11242;50.536;12.688;2022-11-21T06:15:57;1.33;;;1.23;;
22152;SDS011;11242;50.536;12.688;2022-11-21T06:18:29;1.30;;;1.20;;
22152;SDS011;11242;50.536;12.688;2022-11-21T06:21:04;1.50;;;1.40;;
22152;SDS011;11242;50.536;12.688;2022-11-21T06:23:32;9.00;;;6.50;;
22152;SDS011;11242;50.536;12.688;2022-11-21T06:25:58;10.38;;;6.88;;
22152;SDS011;11242;50.536;12.688;2022-11-21T06:28:26;2.10;;;2.00;;
22152;SDS011;11242;50.536;12.688;2022-11-21T06:30:54;4.28;;;3.58;;
22152;SDS011;11242;50.536;12.688;2022-11-21T06:33:20;3.03;;;2.60;;
22152;SDS011;11242;50.536;12.688;2022-11-21T06:35:46;9.75;;;6.70;;
22152;SDS011;11242;50.536;12.688;2022-11-21T06:38:12;8.27;;;6.72;;
22152;SDS011;11242;50.536;12.688;2022-11-21T06:40:38;11.43;;;9.35;;
22152;SDS011;11242;50.536;12.688;2022-11-21T06:43:04;4.93;;;4.43;;
22152;SDS011;11242;50.536;12.688;2022-11-21T06:45:29;7.65;;;6.70;;
22152;SDS011;11242;50.536;12.688;2022-11-21T06:47:55;5.78;;;4.47;;
22152;SDS011;11242;50.536;12.688;2022-11-21T06:50:21;5.22;;;3.42;;
22152;SDS011;11242;50.536;12.688;2022-11-21T06:52:47;4.38;;;3.03;;
22152;SDS011;11242;50.536;12.688;2022-11-21T06:55:13;3.08;;;2.78;;
22152;SDS011;11242;50.536;12.688;2022-11-21T06:57:39;3.03;;;2.45;;
22152;SDS011;11242;50.536;12.688;2022-11-21T07:00:04;5.05;;;3.67;;
22152;SDS011;11242;50.536;12.688;2022-11-21T07:02:30;5.13;;;4.10;;
22152;SDS011;11242;50.536;12.688;2022-11-21T07:04:56;8.13;;;6.25;;
22152;SDS011;11242;50.536;12.688;2022-11-21T07:07:22;7.43;;;6.65;;
22152;SDS011;11242;50.536;12.688;2022-11-21T07:09:47;5.00;;;4.50;;
22152;SDS011;11242;50.536;12.688;2022-11-21T07:12:13;4.57;;;3.40;;
22152;SDS011;11242;50.536;12.688;2022-11-21T07:14:57;3.60;;;3.25;;
22152;SDS011;11242;50.536;12.688;2022-11-21T07:17:23;4.30;;;3.10;;
22152;SDS011;11242;50.536;12.688;2022-11-21T07:19:49;5.28;;;4.63;;
22152;SDS011;11242;50.536;12.688;2022-11-21T07:22:14;7.47;;;5.70;;
22152;SDS011;11242;50.536;12.688;2022-11-21T07:24:40;4.43;;;3.80;;
22152;SDS011;11242;50.536;12.688;2022-11-21T07:27:05;4.80;;;4.30;;
22152;SDS011;11242;50.536;12.688;2022-11-21T07:29:31;6.35;;;5.72;;
22152;SDS011;11242;50.536;12.688;2022-11-21T07:31:56;4.93;;;4.35;;
22152;SDS011;11242;50.536;12.688;2022-11-21T07:34:22;6.18;;;3.60;;
22152;SDS011;11242;50.536;12.688;2022-11-21T07:36:48;3.83;;;3.08;;
22152;SDS011;11242;50.536;12.688;2022-11-21T07:39:13;6.63;;;4.80;;
22152;SDS011;11242;50.536;12.688;2022-11-21T07:41:39;5.28;;;4.30;;
22152;SDS011;11242;50.536;12.688;2022-11-21T07:44:04;5.10;;;4.50;;
22152;SDS011;11242;50.536;12.688;2022-11-21T07:46:30;5.10;;;4.15;;
22152;SDS011;11242;50.536;12.688;2022-11-21T07:48:55;6.22;;;5.57;;
22152;SDS011;11242;50.536;12.688;2022-11-21T07:51:21;9.73;;;8.05;;
22152;SDS011;11242;50.536;12.688;2022-11-21T07:53:47;6.78;;;5.65;;
22152;SDS011;11242;50.536;12.688;2022-11-21T07:56:12;6.70;;;4.78;;
22152;SDS011;11242;50.536;12.688;2022-11-21T07:58:38;6.85;;;6.15;;
22152;SDS011;11242;50.536;12.688;2022-11-21T08:01:05;8.27;;;6.80;;
22152;SDS011;11242;50.536;12.688;2022-11-21T08:03:32;20.48;;;14.05;;
22152;SDS011;11242;50.536;12.688;2022-11-21T08:06:02;24.15;;;14.95;;
22152;SDS011;11242;50.536;12.688;2022-11-21T08:08:28;26.80;;;15.38;;
22152;SDS011;11242;50.536;12.688;2022-11-21T08:10:54;45.85;;;22.45;;
22152;SDS011;11242;50.536;12.688;2022-11-21T08:13:20;30.13;;;14.52;;
22152;SDS011;11242;50.536;12.688;2022-11-21T08:15:46;31.73;;;15.38;;
22152;SDS011;11242;50.536;12.688;2022-11-21T08:18:13;21.75;;;11.90;;
22152;SDS011;11242;50.536;12.688;2022-11-21T08:20:43;37.53;;;19.33;;
22152;SDS011;11242;50.536;12.688;2022-11-21T08:23:09;16.33;;;10.68;;
22152;SDS011;11242;50.536;12.688;2022-11-21T08:25:38;40.50;;;22.13;;
22152;SDS011;11242;50.536;12.688;2022-11-21T08:28:05;13.68;;;8.93;;
22152;SDS011;11242;50.536;12.688;2022-11-21T08:30:32;15.98;;;12.05;;
22152;SDS011;11242;50.536;12.688;2022-11-21T08:32:58;13.88;;;9.38;;
22152;SDS011;11242;50.536;12.688;2022-11-21T08:35:25;18.48;;;13.20;;
22152;SDS011;11242;50.536;12.688;2022-11-21T08:37:57;20.55;;;14.00;;
22152;SDS011;11242;50.536;12.688;2022-11-21T08:40:25;19.85;;;14.52;;
22152;SDS011;11242;50.536;12.688;2022-11-21T08:43:01;24.13;;;16.10;;
22152;SDS011;11242;50.536;12.688;2022-11-21T08:45:29;19.30;;;12.90;;
22152;SDS011;11242;50.536;12.688;2022-11-21T08:47:55;27.23;;;17.15;;
22152;SDS011;11242;50.536;12.688;2022-11-21T08:50:21;53.67;;;31.27;;
22152;SDS011;11242;50.536;12.688;2022-11-21T08:52:47;27.52;;;18.35;;
22152;SDS011;11242;50.536;12.688;2022-11-21T08:55:13;19.88;;;13.43;;
22152;SDS011;11242;50.536;12.688;2022-11-21T08:57:40;15.48;;;11.57;;
22152;SDS011;11242;50.536;12.688;2022-11-21T09:00:07;30.80;;;19.13;;
22152;SDS011;11242;50.536;12.688;2022-11-21T09:02:34;31.42;;;20.17;;
22152;SDS011;11242;50.536;12.688;2022-11-21T09:05:00;20.17;;;14.43;;
22152;SDS011;11242;50.536;12.688;2022-11-21T09:07:26;25.80;;;18.35;;
22152;SDS011;11242;50.536;12.688;2022-11-21T09:09:51;17.63;;;13.85;;
22152;SDS011;11242;50.536;12.688;2022-11-21T09:12:17;12.23;;;9.65;;
22152;SDS011;11242;50.536;12.688;2022-11-21T09:14:43;21.33;;;13.77;;
22152;SDS011;11242;50.536;12.688;2022-11-21T09:17:27;19.10;;;13.05;;
22152;SDS011;11242;50.536;12.688;2022-11-21T09:20:11;29.52;;;19.20;;
22152;SDS011;11242;50.536;12.688;2022-11-21T09:22:37;21.00;;;14.68;;
22152;SDS011;11242;50.536;12.688;2022-11-21T09:25:02;19.98;;;13.38;;
22152;SDS011;11242;50.536;12.688;2022-11-21T09:27:29;21.80;;;14.75;;
22152;SDS011;11242;50.536;12.688;2022-11-21T09:29:55;14.15;;;10.85;;
22152;SDS011;11242;50.536;12.688;2022-11-21T09:32:21;16.02;;;11.50;;
22152;SDS011;11242;50.536;12.688;2022-11-21T09:34:47;15.25;;;11.80;;
22152;SDS011;11242;50.536;12.688;2022-11-21T09:37:12;18.58;;;14.02;;
22152;SDS011;11242;50.536;12.688;2022-11-21T09:39:38;33.30;;;19.77;;
22152;SDS011;11242;50.536;12.688;2022-11-21T09:42:25;17.60;;;12.82;;
22152;SDS011;11242;50.536;12.688;2022-11-21T09:45:14;22.63;;;15.70;;
22152;SDS011;11242;50.536;12.688;2022-11-21T09:47:54;37.53;;;22.10;;
22152;SDS011;11242;50.536;12.688;2022-11-21T09:53:00;30.48;;;19.95;;
22152;SDS011;11242;50.536;12.688;2022-11-21T09:58:19;24.00;;;16.88;;
22152;SDS011;11242;50.536;12.688;2022-11-21T10:00:50;33.80;;;21.52;;
22152;SDS011;11242;50.536;12.688;2022-11-21T10:03:17;26.38;;;18.45;;
22152;SDS011;11242;50.536;12.688;2022-11-21T10:05:46;36.92;;;24.50;;
22152;SDS011;11242;50.536;12.688;2022-11-21T10:08:56;37.28;;;24.15;;
22152;SDS011;11242;50.536;12.688;2022-11-21T10:25:25;28.35;;;17.33;;
22152;SDS011;11242;50.536;12.688;2022-11-21T10:30:36;27.67;;;18.55;;
22152;SDS011;11242;50.536;12.688;2022-11-21T10:33:11;46.30;;;29.35;;
22152;SDS011;11242;50.536;12.688;2022-11-21T10:35:40;22.05;;;14.70;;
22152;SDS011;11242;50.536;12.688;2022-11-21T10:38:21;30.02;;;20.58;;
22152;SDS011;11242;50.536;12.688;2022-11-21T10:40:53;34.50;;;23.00;;
22152;SDS011;11242;50.536;12.688;2022-11-21T10:43:38;27.60;;;17.80;;
22152;SDS011;11242;50.536;12.688;2022-11-21T10:46:28;25.52;;;16.73;;
22152;SDS011;11242;50.536;12.688;2022-11-21T10:49:00;28.30;;;17.73;;
22152;SDS011;11242;50.536;12.688;2022-11-21T10:52:12;28.65;;;17.70;;
22152;SDS011;11242;50.536;12.688;2022-11-21T10:55:00;35.35;;;20.77;;
22152;SDS011;11242;50.536;12.688;2022-11-21T10:57:30;38.58;;;25.20;;
22152;SDS011;11242;50.536;12.688;2022-11-21T11:02:39;30.92;;;19.98;;
22152;SDS011;11242;50.536;12.688;2022-11-21T11:05:26;29.75;;;17.73;;
22152;SDS011;11242;50.536;12.688;2022-11-21T11:08:00;24.73;;;16.85;;
22152;SDS011;11242;50.536;12.688;2022-11-21T11:10:26;31.92;;;19.83;;
22152;SDS011;11242;50.536;12.688;2022-11-21T11:12:52;28.77;;;18.63;;
22152;SDS011;11242;50.536;12.688;2022-11-21T11:15:39;24.58;;;15.27;;
22152;SDS011;11242;50.536;12.688;2022-11-21T11:18:22;29.15;;;21.10;;
22152;SDS011;11242;50.536;12.688;2022-11-21T11:20:48;25.88;;;18.63;;
22152;SDS011;11242;50.536;12.688;2022-11-21T11:25:49;24.05;;;17.20;;
22152;SDS011;11242;50.536;12.688;2022-11-21T11:28:16;33.50;;;22.30;;
22152;SDS011;11242;50.536;12.688;2022-11-21T11:30:48;18.25;;;13.55;;
22152;SDS011;11242;50.536;12.688;2022-11-21T11:36:13;29.00;;;20.85;;
22152;SDS011;11242;50.536;12.688;2022-11-21T11:38:46;33.70;;;24.17;;
22152;SDS011;11242;50.536;12.688;2022-11-21T11:41:21;27.05;;;20.02;;
22152;SDS011;11242;50.536;12.688;2022-11-21T11:44:31;24.58;;;17.60;;
22152;SDS011;11242;50.536;12.688;2022-11-21T11:47:27;18.85;;;13.70;;
22152;SDS011;11242;50.536;12.688;2022-11-21T11:55:44;20.58;;;13.82;;
22152;SDS011;11242;50.536;12.688;2022-11-21T12:00:50;18.10;;;13.35;;
22152;SDS011;11242;50.536;12.688;2022-11-21T12:03:45;18.85;;;14.07;;
22152;SDS011;11242;50.536;12.688;2022-11-21T12:17:40;38.70;;;24.05;;
22152;SDS011;11242;50.536;12.688;2022-11-21T12:20:35;40.97;;;24.88;;
22152;SDS011;11242;50.536;12.688;2022-11-21T12:23:12;38.63;;;23.50;;
22152;SDS011;11242;50.536;12.688;2022-11-21T12:25:50;33.30;;;21.60;;
22152;SDS011;11242;50.536;12.688;2022-11-21T12:28:22;30.25;;;19.45;;
22152;SDS011;11242;50.536;12.688;2022-11-21T12:30:58;38.15;;;24.58;;
22152;SDS011;11242;50.536;12.688;2022-11-21T12:33:34;38.28;;;22.77;;
22152;SDS011;11242;50.536;12.688;2022-11-21T12:36:13;33.28;;;21.73;;
22152;SDS011;11242;50.536;12.688;2022-11-21T12:38:49;34.35;;;20.98;;
22152;SDS011;11242;50.536;12.688;2022-11-21T12:44:41;29.63;;;19.08;;
22152;SDS011;11242;50.536;12.688;2022-11-21T12:53:31;43.40;;;27.70;;
22152;SDS011;11242;50.536;12.688;2022-11-21T12:56:31;48.95;;;30.45;;
22152;SDS011;11242;50.536;12.688;2022-11-21T12:58:59;45.03;;;28.15;;
22152;SDS011;11242;50.536;12.688;2022-11-21T13:01:29;46.67;;;28.88;;
22152;SDS011;11242;50.536;12.688;2022-11-21T13:04:00;44.45;;;29.23;;
22152;SDS011;11242;50.536;12.688;2022-11-21T13:06:30;43.97;;;29.17;;
22152;SDS011;11242;50.536;12.688;2022-11-21T13:09:01;49.80;;;32.22;;
22152;SDS011;11242;50.536;12.688;2022-11-21T13:11:47;58.55;;;36.65;;
22152;SDS011;11242;50.536;12.688;2022-11-21T13:16:56;51.40;;;33.55;;
22152;SDS011;11242;50.536;12.688;2022-11-21T13:25:11;65.88;;;34.95;;
22152;SDS011;11242;50.536;12.688;2022-11-21T13:28:21;66.30;;;35.47;;
22152;SDS011;11242;50.536;12.688;2022-11-21T13:36:12;24.55;;;16.40;;
22152;SDS011;11242;50.536;12.688;2022-11-21T13:46:59;60.28;;;38.15;;
22152;SDS011;11242;50.536;12.688;2022-11-21T13:52:21;71.28;;;40.45;;
22152;SDS011;11242;50.536;12.688;2022-11-21T14:05:59;97.22;;;52.20;;
22152;SDS011;11242;50.536;12.688;2022-11-21T14:08:37;100.47;;;55.55;;
22152;SDS011;11242;50.536;12.688;2022-11-21T14:11:20;100.82;;;52.80;;
22152;SDS011;11242;50.536;12.688;2022-11-21T14:13:56;93.35;;;49.85;;
22152;SDS011;11242;50.536;12.688;2022-11-21T14:16:24;99.10;;;52.38;;
22152;SDS011;11242;50.536;12.688;2022-11-21T14:19:00;106.35;;;58.45;;
22152;SDS011;11242;50.536;12.688;2022-11-21T14:21:28;105.60;;;59.40;;
22152;SDS011;11242;50.536;12.688;2022-11-21T14:23:56;115.25;;;63.35;;
22152;SDS011;11242;50.536;12.688;2022-11-21T14:26:28;121.15;;;64.43;;
22152;SDS011;11242;50.536;12.688;2022-11-21T14:31:48;88.03;;;50.15;;
22152;SDS011;11242;50.536;12.688;2022-11-21T14:34:24;65.28;;;37.72;;
22152;SDS011;11242;50.536;12.688;2022-11-21T14:36:50;53.58;;;33.95;;
22152;SDS011;11242;50.536;12.688;2022-11-21T14:39:16;32.92;;;22.42;;
22152;SDS011;11242;50.536;12.688;2022-11-21T14:41:47;37.58;;;23.45;;
22152;SDS011;11242;50.536;12.688;2022-11-21T14:44:17;99.20;;;49.13;;
22152;SDS011;11242;50.536;12.688;2022-11-21T14:46:44;121.53;;;58.22;;
22152;SDS011;11242;50.536;12.688;2022-11-21T14:54:28;47.70;;;26.27;;
22152;SDS011;11242;50.536;12.688;2022-11-21T14:56:57;69.18;;;35.08;;
22152;SDS011;11242;50.536;12.688;2022-11-21T14:59:28;49.03;;;25.35;;
22152;SDS011;11242;50.536;12.688;2022-11-21T15:02:01;19.52;;;12.13;;
22152;SDS011;11242;50.536;12.688;2022-11-21T15:04:35;27.40;;;20.70;;
22152;SDS011;11242;50.536;12.688;2022-11-21T15:07:01;22.52;;;15.32;;
22152;SDS011;11242;50.536;12.688;2022-11-21T15:09:27;61.10;;;33.60;;
22152;SDS011;11242;50.536;12.688;2022-11-21T15:11:58;102.18;;;46.95;;
22152;SDS011;11242;50.536;12.688;2022-11-21T15:17:01;136.15;;;62.63;;
22152;SDS011;11242;50.536;12.688;2022-11-21T15:19:29;74.70;;;33.38;;
22152;SDS011;11242;50.536;12.688;2022-11-21T15:21:56;36.00;;;22.60;;
22152;SDS011;11242;50.536;12.688;2022-11-21T15:27:22;142.65;;;74.00;;
22152;SDS011;11242;50.536;12.688;2022-11-21T15:30:04;128.45;;;70.00;;
22152;SDS011;11242;50.536;12.688;2022-11-21T15:43:34;48.90;;;31.85;;
22152;SDS011;11242;50.536;12.688;2022-11-21T15:46:00;52.60;;;31.08;;
22152;SDS011;11242;50.536;12.688;2022-11-21T15:48:35;33.53;;;22.05;;
22152;SDS011;11242;50.536;12.688;2022-11-21T15:51:01;41.55;;;25.85;;
22152;SDS011;11242;50.536;12.688;2022-11-21T15:53:26;568.05;;;257.73;;
22152;SDS011;11242;50.536;12.688;2022-11-21T15:55:52;503.02;;;217.98;;
22152;SDS011;11242;50.536;12.688;2022-11-21T15:58:18;289.00;;;117.07;;
22152;SDS011;11242;50.536;12.688;2022-11-21T16:00:44;245.32;;;106.38;;
22152;SDS011;11242;50.536;12.688;2022-11-21T16:03:09;287.10;;;121.13;;
22152;SDS011;11242;50.536;12.688;2022-11-21T16:05:35;216.65;;;100.28;;
22152;SDS011;11242;50.536;12.688;2022-11-21T16:08:00;137.18;;;69.07;;
22152;SDS011;11242;50.536;12.688;2022-11-21T16:10:26;103.97;;;52.78;;
22152;SDS011;11242;50.536;12.688;2022-11-21T16:12:52;70.05;;;37.35;;
22152;SDS011;11242;50.536;12.688;2022-11-21T16:15:17;56.75;;;30.35;;
22152;SDS011;11242;50.536;12.688;2022-11-21T16:17:43;19.77;;;12.88;;
22152;SDS011;11242;50.536;12.688;2022-11-21T16:20:09;15.68;;;8.57;;
22152;SDS011;11242;50.536;12.688;2022-11-21T16:22:35;17.98;;;9.95;;
22152;SDS011;11242;50.536;12.688;2022-11-21T16:25:00;49.55;;;33.17;;
22152;SDS011;11242;50.536;12.688;2022-11-21T16:27:26;57.10;;;37.85;;
22152;SDS011;11242;50.536;12.688;2022-11-21T16:29:52;60.40;;;39.17;;
22152;SDS011;11242;50.536;12.688;2022-11-21T16:32:17;63.15;;;40.92;;
22152;SDS011;11242;50.536;12.688;2022-11-21T16:34:43;48.60;;;32.10;;
22152;SDS011;11242;50.536;12.688;2022-11-21T16:37:08;32.67;;;20.85;;
22152;SDS011;11242;50.536;12.688;2022-11-21T16:39:34;50.08;;;27.95;;
22152;SDS011;11242;50.536;12.688;2022-11-21T16:42:00;61.47;;;37.03;;
22152;SDS011;11242;50.536;12.688;2022-11-21T16:44:25;129.40;;;82.47;;
22152;SDS011;11242;50.536;12.688;2022-11-21T16:46:53;185.30;;;125.00;;